sensor_id;sensor_type;location;lat;lon;timestamp;P1;durP1;ratioP1;P2;durP2;ratioP2
24547;SDS011;12713;51.624;4.924;2023-08-17T00:02:21;7.88;;;2.88;;
24547;SDS011;12713;51.624;4.924;2023-08-17T00:04:47;7.80;;;2.60;;
24547;SDS011;12713;51.624;4.924;2023-08-17T00:07:13;5.43;;;2.80;;
24547;SDS011;12713;51.624;4.924;2023-08-17T00:09:39;5.18;;;2.75;;
24547;SDS011;12713;51.624;4.924;2023-08-17T00:12:05;6.25;;;2.42;;
24547;SDS011;12713;51.624;4.924;2023-08-17T00:14:31;6.38;;;2.85;;
24547;SDS011;12713;51.624;4.924;2023-08-17T00:16:57;6.18;;;2.28;;
24547;SDS011;12713;51.624;4.924;2023-08-17T00:19:23;5.90;;;2.90;;
24547;SDS011;12713;51.624;4.924;2023-08-17T00:21:50;3.67;;;2.38;;
24547;SDS011;12713;51.624;4.924;2023-08-17T00:24:17;5.78;;;2.33;;
24547;SDS011;12713;51.624;4.924;2023-08-17T00:26:43;7.03;;;3.17;;
24547;SDS011;12713;51.624;4.924;2023-08-17T00:29:09;6.18;;;3.33;;
24547;SDS011;12713;51.624;4.924;2023-08-17T00:31:35;3.63;;;2.40;;
24547;SDS011;12713;51.624;4.924;2023-08-17T00:34:02;6.38;;;2.42;;
24547;SDS011;12713;51.624;4.924;2023-08-17T00:36:28;4.70;;;2.92;;
24547;SDS011;12713;51.624;4.924;2023-08-17T00:38:54;7.43;;;2.80;;
24547;SDS011;12713;51.624;4.924;2023-08-17T00:41:20;7.68;;;3.10;;
24547;SDS011;12713;51.624;4.924;2023-08-17T00:43:46;5.78;;;2.60;;
24547;SDS011;12713;51.624;4.924;2023-08-17T00:46:12;5.90;;;2.58;;
24547;SDS011;12713;51.624;4.924;2023-08-17T00:48:39;7.68;;;2.63;;
24547;SDS011;12713;51.624;4.924;2023-08-17T00:51:05;6.20;;;2.78;;
24547;SDS011;12713;51.624;4.924;2023-08-17T00:53:31;6.75;;;2.67;;
24547;SDS011;12713;51.624;4.924;2023-08-17T00:55:58;6.38;;;2.97;;
24547;SDS011;12713;51.624;4.924;2023-08-17T00:58:25;5.35;;;2.45;;
24547;SDS011;12713;51.624;4.924;2023-08-17T01:00:51;5.82;;;2.65;;
24547;SDS011;12713;51.624;4.924;2023-08-17T01:03:17;6.47;;;2.85;;
24547;SDS011;12713;51.624;4.924;2023-08-17T01:05:44;5.88;;;2.38;;
24547;SDS011;12713;51.624;4.924;2023-08-17T01:08:10;7.85;;;3.05;;
24547;SDS011;12713;51.624;4.924;2023-08-17T01:13:24;4.22;;;2.47;;
24547;SDS011;12713;51.624;4.924;2023-08-17T01:15:52;5.03;;;2.65;;
24547;SDS011;12713;51.624;4.924;2023-08-17T01:18:32;7.03;;;2.72;;
24547;SDS011;12713;51.624;4.924;2023-08-17T01:20:59;5.65;;;2.80;;
24547;SDS011;12713;51.624;4.924;2023-08-17T01:23:25;4.93;;;2.85;;
24547;SDS011;12713;51.624;4.924;2023-08-17T01:25:52;4.50;;;2.40;;
24547;SDS011;12713;51.624;4.924;2023-08-17T01:28:19;6.80;;;3.00;;
24547;SDS011;12713;51.624;4.924;2023-08-17T01:33:50;6.00;;;2.63;;
24547;SDS011;12713;51.624;4.924;2023-08-17T01:36:19;5.63;;;2.65;;
24547;SDS011;12713;51.624;4.924;2023-08-17T01:38:46;4.15;;;2.85;;
24547;SDS011;12713;51.624;4.924;2023-08-17T01:41:13;7.88;;;3.15;;
24547;SDS011;12713;51.624;4.924;2023-08-17T01:43:41;6.57;;;2.65;;
24547;SDS011;12713;51.624;4.924;2023-08-17T01:46:12;7.50;;;3.05;;
24547;SDS011;12713;51.624;4.924;2023-08-17T01:48:39;6.75;;;3.00;;
24547;SDS011;12713;51.624;4.924;2023-08-17T01:51:05;3.88;;;2.50;;
24547;SDS011;12713;51.624;4.924;2023-08-17T01:53:31;5.63;;;2.95;;
24547;SDS011;12713;51.624;4.924;2023-08-17T01:55:57;4.82;;;2.58;;
24547;SDS011;12713;51.624;4.924;2023-08-17T01:58:23;4.75;;;2.58;;
24547;SDS011;12713;51.624;4.924;2023-08-17T02:00:49;5.38;;;2.20;;
24547;SDS011;12713;51.624;4.924;2023-08-17T02:03:15;7.55;;;2.55;;
24547;SDS011;12713;51.624;4.924;2023-08-17T02:05:45;4.85;;;2.65;;
24547;SDS011;12713;51.624;4.924;2023-08-17T02:08:11;7.10;;;2.90;;
24547;SDS011;12713;51.624;4.924;2023-08-17T02:10:37;5.78;;;2.53;;
24547;SDS011;12713;51.624;4.924;2023-08-17T02:13:03;6.38;;;2.47;;
24547;SDS011;12713;51.624;4.924;2023-08-17T02:15:29;4.65;;;2.30;;
24547;SDS011;12713;51.624;4.924;2023-08-17T02:18:01;4.75;;;2.30;;
24547;SDS011;12713;51.624;4.924;2023-08-17T02:20:28;5.78;;;2.60;;
24547;SDS011;12713;51.624;4.924;2023-08-17T02:22:54;5.05;;;2.72;;
24547;SDS011;12713;51.624;4.924;2023-08-17T02:25:23;6.40;;;2.47;;
24547;SDS011;12713;51.624;4.924;2023-08-17T02:27:49;4.90;;;2.58;;
24547;SDS011;12713;51.624;4.924;2023-08-17T02:30:15;4.40;;;2.40;;
24547;SDS011;12713;51.624;4.924;2023-08-17T02:32:41;7.18;;;2.72;;
24547;SDS011;12713;51.624;4.924;2023-08-17T02:35:07;5.18;;;2.70;;
24547;SDS011;12713;51.624;4.924;2023-08-17T02:37:33;6.78;;;2.28;;
24547;SDS011;12713;51.624;4.924;2023-08-17T02:39:59;4.88;;;2.42;;
24547;SDS011;12713;51.624;4.924;2023-08-17T02:42:25;5.63;;;2.33;;
24547;SDS011;12713;51.624;4.924;2023-08-17T02:44:51;8.95;;;2.88;;
24547;SDS011;12713;51.624;4.924;2023-08-17T02:47:17;4.78;;;2.30;;
24547;SDS011;12713;51.624;4.924;2023-08-17T02:49:44;5.70;;;2.70;;
24547;SDS011;12713;51.624;4.924;2023-08-17T02:52:10;5.50;;;2.53;;
24547;SDS011;12713;51.624;4.924;2023-08-17T02:54:36;5.72;;;2.80;;
24547;SDS011;12713;51.624;4.924;2023-08-17T02:57:02;4.70;;;2.67;;
24547;SDS011;12713;51.624;4.924;2023-08-17T02:59:28;5.90;;;2.58;;
24547;SDS011;12713;51.624;4.924;2023-08-17T03:01:54;10.32;;;2.80;;
24547;SDS011;12713;51.624;4.924;2023-08-17T03:04:21;4.30;;;2.45;;
24547;SDS011;12713;51.624;4.924;2023-08-17T03:06:47;5.18;;;3.10;;
24547;SDS011;12713;51.624;4.924;2023-08-17T03:09:13;3.97;;;2.40;;
24547;SDS011;12713;51.624;4.924;2023-08-17T03:11:39;4.97;;;2.80;;
24547;SDS011;12713;51.624;4.924;2023-08-17T03:14:05;4.07;;;2.42;;
24547;SDS011;12713;51.624;4.924;2023-08-17T03:16:31;4.20;;;2.70;;
24547;SDS011;12713;51.624;4.924;2023-08-17T03:18:58;7.05;;;2.97;;
24547;SDS011;12713;51.624;4.924;2023-08-17T03:21:24;7.20;;;2.72;;
24547;SDS011;12713;51.624;4.924;2023-08-17T03:23:50;5.07;;;2.67;;
24547;SDS011;12713;51.624;4.924;2023-08-17T03:26:16;9.52;;;2.60;;
24547;SDS011;12713;51.624;4.924;2023-08-17T03:28:42;4.57;;;2.80;;
24547;SDS011;12713;51.624;4.924;2023-08-17T03:31:08;5.43;;;2.90;;
24547;SDS011;12713;51.624;4.924;2023-08-17T03:33:35;9.98;;;2.72;;
24547;SDS011;12713;51.624;4.924;2023-08-17T03:36:01;9.57;;;2.67;;
24547;SDS011;12713;51.624;4.924;2023-08-17T03:38:27;7.72;;;2.92;;
24547;SDS011;12713;51.624;4.924;2023-08-17T03:40:53;6.50;;;2.45;;
24547;SDS011;12713;51.624;4.924;2023-08-17T03:43:20;8.98;;;3.20;;
24547;SDS011;12713;51.624;4.924;2023-08-17T03:45:46;5.50;;;2.20;;
24547;SDS011;12713;51.624;4.924;2023-08-17T03:48:12;8.35;;;3.10;;
24547;SDS011;12713;51.624;4.924;2023-08-17T03:50:38;7.35;;;2.88;;
24547;SDS011;12713;51.624;4.924;2023-08-17T03:53:04;6.32;;;2.65;;
24547;SDS011;12713;51.624;4.924;2023-08-17T03:55:30;3.25;;;2.10;;
24547;SDS011;12713;51.624;4.924;2023-08-17T03:57:56;8.13;;;2.70;;
24547;SDS011;12713;51.624;4.924;2023-08-17T04:00:22;4.00;;;2.33;;
24547;SDS011;12713;51.624;4.924;2023-08-17T04:02:48;7.75;;;2.42;;
24547;SDS011;12713;51.624;4.924;2023-08-17T04:05:14;4.07;;;2.58;;
24547;SDS011;12713;51.624;4.924;2023-08-17T04:07:40;3.88;;;1.90;;
24547;SDS011;12713;51.624;4.924;2023-08-17T04:10:06;4.32;;;2.13;;
24547;SDS011;12713;51.624;4.924;2023-08-17T04:12:32;9.32;;;2.33;;
24547;SDS011;12713;51.624;4.924;2023-08-17T04:14:58;3.53;;;1.90;;
24547;SDS011;12713;51.624;4.924;2023-08-17T04:17:25;8.10;;;2.70;;
24547;SDS011;12713;51.624;4.924;2023-08-17T04:19:51;4.60;;;2.28;;
24547;SDS011;12713;51.624;4.924;2023-08-17T04:22:17;7.95;;;2.40;;
24547;SDS011;12713;51.624;4.924;2023-08-17T04:24:43;3.70;;;2.60;;
24547;SDS011;12713;51.624;4.924;2023-08-17T04:27:09;6.25;;;2.72;;
24547;SDS011;12713;51.624;4.924;2023-08-17T04:29:37;4.18;;;2.10;;
24547;SDS011;12713;51.624;4.924;2023-08-17T04:32:03;8.32;;;2.10;;
24547;SDS011;12713;51.624;4.924;2023-08-17T04:34:29;5.03;;;2.28;;
24547;SDS011;12713;51.624;4.924;2023-08-17T04:36:56;6.38;;;2.20;;
24547;SDS011;12713;51.624;4.924;2023-08-17T04:39:22;5.72;;;2.58;;
24547;SDS011;12713;51.624;4.924;2023-08-17T04:41:48;4.63;;;2.25;;
24547;SDS011;12713;51.624;4.924;2023-08-17T04:44:14;5.25;;;2.15;;
24547;SDS011;12713;51.624;4.924;2023-08-17T04:46:40;5.78;;;2.40;;
24547;SDS011;12713;51.624;4.924;2023-08-17T04:49:06;3.53;;;2.13;;
24547;SDS011;12713;51.624;4.924;2023-08-17T04:51:32;4.97;;;2.63;;
24547;SDS011;12713;51.624;4.924;2023-08-17T04:53:58;3.28;;;2.03;;
24547;SDS011;12713;51.624;4.924;2023-08-17T04:56:24;5.03;;;2.03;;
24547;SDS011;12713;51.624;4.924;2023-08-17T04:58:50;8.25;;;2.95;;
24547;SDS011;12713;51.624;4.924;2023-08-17T05:01:16;4.68;;;2.38;;
24547;SDS011;12713;51.624;4.924;2023-08-17T05:03:43;4.40;;;2.60;;
24547;SDS011;12713;51.624;4.924;2023-08-17T05:06:09;4.65;;;2.33;;
24547;SDS011;12713;51.624;4.924;2023-08-17T05:08:35;9.45;;;2.75;;
24547;SDS011;12713;51.624;4.924;2023-08-17T05:11:01;6.22;;;2.58;;
24547;SDS011;12713;51.624;4.924;2023-08-17T05:13:27;6.45;;;2.67;;
24547;SDS011;12713;51.624;4.924;2023-08-17T05:15:53;9.35;;;3.35;;
24547;SDS011;12713;51.624;4.924;2023-08-17T05:18:19;3.42;;;2.60;;
24547;SDS011;12713;51.624;4.924;2023-08-17T05:20:45;8.02;;;2.92;;
24547;SDS011;12713;51.624;4.924;2023-08-17T05:23:11;4.93;;;2.50;;
24547;SDS011;12713;51.624;4.924;2023-08-17T05:25:37;5.80;;;2.70;;
24547;SDS011;12713;51.624;4.924;2023-08-17T05:28:03;5.65;;;2.30;;
24547;SDS011;12713;51.624;4.924;2023-08-17T05:30:29;9.35;;;2.45;;
24547;SDS011;12713;51.624;4.924;2023-08-17T05:32:55;5.13;;;2.80;;
24547;SDS011;12713;51.624;4.924;2023-08-17T05:35:21;3.92;;;2.55;;
24547;SDS011;12713;51.624;4.924;2023-08-17T05:37:47;6.07;;;2.53;;
24547;SDS011;12713;51.624;4.924;2023-08-17T05:40:13;8.27;;;2.58;;
24547;SDS011;12713;51.624;4.924;2023-08-17T05:42:39;5.03;;;2.50;;
24547;SDS011;12713;51.624;4.924;2023-08-17T05:45:06;6.07;;;3.15;;
24547;SDS011;12713;51.624;4.924;2023-08-17T05:47:32;8.90;;;3.13;;
24547;SDS011;12713;51.624;4.924;2023-08-17T05:50:01;6.35;;;2.53;;
24547;SDS011;12713;51.624;4.924;2023-08-17T05:52:27;3.90;;;2.40;;
24547;SDS011;12713;51.624;4.924;2023-08-17T05:54:53;3.45;;;2.55;;
24547;SDS011;12713;51.624;4.924;2023-08-17T05:57:19;5.65;;;2.78;;
24547;SDS011;12713;51.624;4.924;2023-08-17T05:59:45;5.05;;;2.53;;
24547;SDS011;12713;51.624;4.924;2023-08-17T06:02:11;5.20;;;2.55;;
24547;SDS011;12713;51.624;4.924;2023-08-17T06:04:37;4.40;;;2.20;;
24547;SDS011;12713;51.624;4.924;2023-08-17T06:07:03;8.07;;;3.08;;
24547;SDS011;12713;51.624;4.924;2023-08-17T06:09:29;6.57;;;3.28;;
24547;SDS011;12713;51.624;4.924;2023-08-17T06:11:55;7.75;;;3.25;;
24547;SDS011;12713;51.624;4.924;2023-08-17T06:14:21;8.95;;;3.28;;
24547;SDS011;12713;51.624;4.924;2023-08-17T06:16:47;9.85;;;3.00;;
24547;SDS011;12713;51.624;4.924;2023-08-17T06:19:13;9.50;;;3.08;;
24547;SDS011;12713;51.624;4.924;2023-08-17T06:21:39;5.97;;;2.95;;
24547;SDS011;12713;51.624;4.924;2023-08-17T06:24:05;8.63;;;2.88;;
24547;SDS011;12713;51.624;4.924;2023-08-17T06:26:31;6.10;;;2.70;;
24547;SDS011;12713;51.624;4.924;2023-08-17T06:29:00;6.75;;;2.80;;
24547;SDS011;12713;51.624;4.924;2023-08-17T06:31:26;11.52;;;3.70;;
24547;SDS011;12713;51.624;4.924;2023-08-17T06:33:55;7.05;;;2.80;;
24547;SDS011;12713;51.624;4.924;2023-08-17T06:36:21;4.70;;;2.80;;
24547;SDS011;12713;51.624;4.924;2023-08-17T06:38:48;5.95;;;2.47;;
24547;SDS011;12713;51.624;4.924;2023-08-17T06:41:16;6.75;;;2.88;;
24547;SDS011;12713;51.624;4.924;2023-08-17T06:43:42;6.78;;;2.70;;
24547;SDS011;12713;51.624;4.924;2023-08-17T06:46:08;5.35;;;3.05;;
24547;SDS011;12713;51.624;4.924;2023-08-17T06:48:34;7.35;;;2.78;;
24547;SDS011;12713;51.624;4.924;2023-08-17T06:51:00;6.10;;;3.28;;
24547;SDS011;12713;51.624;4.924;2023-08-17T06:53:27;5.97;;;2.60;;
24547;SDS011;12713;51.624;4.924;2023-08-17T06:55:53;6.93;;;2.92;;
24547;SDS011;12713;51.624;4.924;2023-08-17T06:58:22;10.70;;;3.47;;
24547;SDS011;12713;51.624;4.924;2023-08-17T07:00:48;9.52;;;3.42;;
24547;SDS011;12713;51.624;4.924;2023-08-17T07:03:14;6.40;;;3.03;;
24547;SDS011;12713;51.624;4.924;2023-08-17T07:05:41;5.68;;;3.00;;
24547;SDS011;12713;51.624;4.924;2023-08-17T07:08:07;6.30;;;3.30;;
24547;SDS011;12713;51.624;4.924;2023-08-17T07:10:34;6.53;;;3.33;;
24547;SDS011;12713;51.624;4.924;2023-08-17T07:13:00;7.68;;;3.13;;
24547;SDS011;12713;51.624;4.924;2023-08-17T07:15:30;6.13;;;2.65;;
24547;SDS011;12713;51.624;4.924;2023-08-17T07:17:56;13.60;;;2.95;;
24547;SDS011;12713;51.624;4.924;2023-08-17T07:20:22;6.28;;;4.22;;
24547;SDS011;12713;51.624;4.924;2023-08-17T07:22:48;11.55;;;3.33;;
24547;SDS011;12713;51.624;4.924;2023-08-17T07:25:14;7.95;;;3.33;;
24547;SDS011;12713;51.624;4.924;2023-08-17T07:27:41;7.50;;;3.38;;
24547;SDS011;12713;51.624;4.924;2023-08-17T07:30:07;9.68;;;3.53;;
24547;SDS011;12713;51.624;4.924;2023-08-17T07:32:34;9.73;;;3.40;;
24547;SDS011;12713;51.624;4.924;2023-08-17T07:35:00;9.43;;;3.45;;
24547;SDS011;12713;51.624;4.924;2023-08-17T07:37:26;11.82;;;4.13;;
24547;SDS011;12713;51.624;4.924;2023-08-17T07:39:57;11.25;;;3.50;;
24547;SDS011;12713;51.624;4.924;2023-08-17T07:42:24;8.95;;;3.65;;
24547;SDS011;12713;51.624;4.924;2023-08-17T07:44:50;7.90;;;3.63;;
24547;SDS011;12713;51.624;4.924;2023-08-17T07:47:16;9.38;;;4.20;;
24547;SDS011;12713;51.624;4.924;2023-08-17T07:49:42;9.10;;;3.42;;
24547;SDS011;12713;51.624;4.924;2023-08-17T07:52:08;7.50;;;3.80;;
24547;SDS011;12713;51.624;4.924;2023-08-17T07:54:34;8.82;;;3.40;;
24547;SDS011;12713;51.624;4.924;2023-08-17T07:57:00;11.90;;;3.50;;
24547;SDS011;12713;51.624;4.924;2023-08-17T07:59:28;9.10;;;4.05;;
24547;SDS011;12713;51.624;4.924;2023-08-17T08:01:54;10.95;;;4.03;;
24547;SDS011;12713;51.624;4.924;2023-08-17T08:04:20;7.55;;;3.70;;
24547;SDS011;12713;51.624;4.924;2023-08-17T08:06:46;6.22;;;3.08;;
24547;SDS011;12713;51.624;4.924;2023-08-17T08:09:12;8.40;;;3.22;;
24547;SDS011;12713;51.624;4.924;2023-08-17T08:11:38;6.93;;;3.42;;
24547;SDS011;12713;51.624;4.924;2023-08-17T08:14:07;8.15;;;3.45;;
24547;SDS011;12713;51.624;4.924;2023-08-17T08:16:33;9.70;;;4.28;;
24547;SDS011;12713;51.624;4.924;2023-08-17T08:18:59;7.13;;;3.22;;
24547;SDS011;12713;51.624;4.924;2023-08-17T08:21:25;5.15;;;3.10;;
24547;SDS011;12713;51.624;4.924;2023-08-17T08:23:52;8.65;;;3.95;;
24547;SDS011;12713;51.624;4.924;2023-08-17T08:26:18;5.95;;;3.35;;
24547;SDS011;12713;51.624;4.924;2023-08-17T08:28:45;8.55;;;3.42;;
24547;SDS011;12713;51.624;4.924;2023-08-17T08:31:11;10.90;;;4.07;;
24547;SDS011;12713;51.624;4.924;2023-08-17T08:33:37;9.40;;;3.80;;
24547;SDS011;12713;51.624;4.924;2023-08-17T08:36:03;6.75;;;3.88;;
24547;SDS011;12713;51.624;4.924;2023-08-17T08:38:31;8.75;;;3.72;;
24547;SDS011;12713;51.624;4.924;2023-08-17T08:40:57;5.00;;;3.33;;
24547;SDS011;12713;51.624;4.924;2023-08-17T08:43:24;9.15;;;3.53;;
24547;SDS011;12713;51.624;4.924;2023-08-17T08:45:50;7.00;;;4.18;;
24547;SDS011;12713;51.624;4.924;2023-08-17T08:48:18;10.65;;;3.35;;
24547;SDS011;12713;51.624;4.924;2023-08-17T08:50:44;6.45;;;3.90;;
24547;SDS011;12713;51.624;4.924;2023-08-17T08:53:14;9.27;;;3.90;;
24547;SDS011;12713;51.624;4.924;2023-08-17T08:55:52;10.35;;;3.80;;
24547;SDS011;12713;51.624;4.924;2023-08-17T08:58:23;6.93;;;3.70;;
24547;SDS011;12713;51.624;4.924;2023-08-17T09:00:50;4.55;;;3.45;;
24547;SDS011;12713;51.624;4.924;2023-08-17T09:03:18;8.40;;;3.90;;
24547;SDS011;12713;51.624;4.924;2023-08-17T09:05:49;8.10;;;3.45;;
24547;SDS011;12713;51.624;4.924;2023-08-17T09:08:27;7.57;;;4.10;;
24547;SDS011;12713;51.624;4.924;2023-08-17T09:10:53;8.82;;;3.65;;
24547;SDS011;12713;51.624;4.924;2023-08-17T09:13:19;5.68;;;3.60;;
24547;SDS011;12713;51.624;4.924;2023-08-17T09:15:45;8.30;;;4.43;;
24547;SDS011;12713;51.624;4.924;2023-08-17T09:18:11;9.75;;;3.85;;
24547;SDS011;12713;51.624;4.924;2023-08-17T09:20:41;7.38;;;3.88;;
24547;SDS011;12713;51.624;4.924;2023-08-17T09:23:13;8.35;;;4.32;;
24547;SDS011;12713;51.624;4.924;2023-08-17T09:25:40;10.23;;;4.35;;
24547;SDS011;12713;51.624;4.924;2023-08-17T09:28:06;5.65;;;3.88;;
24547;SDS011;12713;51.624;4.924;2023-08-17T09:30:38;7.03;;;4.18;;
24547;SDS011;12713;51.624;4.924;2023-08-17T09:33:14;6.32;;;4.15;;
24547;SDS011;12713;51.624;4.924;2023-08-17T09:35:41;6.22;;;3.70;;
24547;SDS011;12713;51.624;4.924;2023-08-17T09:38:07;6.28;;;3.65;;
24547;SDS011;12713;51.624;4.924;2023-08-17T09:40:33;9.82;;;4.50;;
24547;SDS011;12713;51.624;4.924;2023-08-17T09:42:59;9.45;;;5.20;;
24547;SDS011;12713;51.624;4.924;2023-08-17T09:45:27;7.63;;;5.05;;
24547;SDS011;12713;51.624;4.924;2023-08-17T09:48:00;7.00;;;3.97;;
24547;SDS011;12713;51.624;4.924;2023-08-17T09:50:26;9.50;;;4.70;;
24547;SDS011;12713;51.624;4.924;2023-08-17T09:52:53;7.43;;;4.38;;
24547;SDS011;12713;51.624;4.924;2023-08-17T09:55:22;9.63;;;4.35;;
24547;SDS011;12713;51.624;4.924;2023-08-17T09:57:49;11.15;;;4.53;;
24547;SDS011;12713;51.624;4.924;2023-08-17T10:00:19;8.93;;;5.07;;
24547;SDS011;12713;51.624;4.924;2023-08-17T10:02:45;9.00;;;4.95;;
24547;SDS011;12713;51.624;4.924;2023-08-17T10:05:16;10.68;;;4.60;;
24547;SDS011;12713;51.624;4.924;2023-08-17T10:07:43;10.98;;;5.30;;
24547;SDS011;12713;51.624;4.924;2023-08-17T10:10:09;10.77;;;5.00;;
24547;SDS011;12713;51.624;4.924;2023-08-17T10:12:36;9.52;;;4.75;;
24547;SDS011;12713;51.624;4.924;2023-08-17T10:15:03;11.27;;;4.70;;
24547;SDS011;12713;51.624;4.924;2023-08-17T10:17:38;8.40;;;4.60;;
24547;SDS011;12713;51.624;4.924;2023-08-17T10:20:05;14.57;;;4.95;;
24547;SDS011;12713;51.624;4.924;2023-08-17T10:25:33;7.95;;;5.32;;
24547;SDS011;12713;51.624;4.924;2023-08-17T10:28:00;7.32;;;4.65;;
24547;SDS011;12713;51.624;4.924;2023-08-17T10:30:28;7.28;;;4.10;;
24547;SDS011;12713;51.624;4.924;2023-08-17T10:32:54;8.93;;;4.50;;
24547;SDS011;12713;51.624;4.924;2023-08-17T10:35:21;9.57;;;5.55;;
24547;SDS011;12713;51.624;4.924;2023-08-17T10:37:48;9.75;;;5.10;;
24547;SDS011;12713;51.624;4.924;2023-08-17T10:40:14;10.80;;;5.05;;
24547;SDS011;12713;51.624;4.924;2023-08-17T10:42:43;10.10;;;5.40;;
24547;SDS011;12713;51.624;4.924;2023-08-17T10:47:47;13.13;;;5.60;;
24547;SDS011;12713;51.624;4.924;2023-08-17T10:50:23;9.73;;;5.63;;
24547;SDS011;12713;51.624;4.924;2023-08-17T10:52:50;7.88;;;5.25;;
24547;SDS011;12713;51.624;4.924;2023-08-17T10:55:35;11.93;;;4.80;;
24547;SDS011;12713;51.624;4.924;2023-08-17T10:58:01;9.20;;;5.45;;
24547;SDS011;12713;51.624;4.924;2023-08-17T11:00:31;11.25;;;6.20;;
24547;SDS011;12713;51.624;4.924;2023-08-17T11:03:02;13.70;;;5.45;;
24547;SDS011;12713;51.624;4.924;2023-08-17T11:08:03;11.40;;;4.75;;
24547;SDS011;12713;51.624;4.924;2023-08-17T11:10:29;12.05;;;6.22;;
24547;SDS011;12713;51.624;4.924;2023-08-17T11:12:58;13.15;;;6.00;;
24547;SDS011;12713;51.624;4.924;2023-08-17T11:15:47;19.20;;;6.47;;
24547;SDS011;12713;51.624;4.924;2023-08-17T11:18:14;16.13;;;6.35;;
24547;SDS011;12713;51.624;4.924;2023-08-17T11:23:42;14.63;;;5.72;;
24547;SDS011;12713;51.624;4.924;2023-08-17T11:26:11;11.75;;;6.07;;
24547;SDS011;12713;51.624;4.924;2023-08-17T11:28:37;12.27;;;5.97;;
24547;SDS011;12713;51.624;4.924;2023-08-17T11:31:08;11.23;;;6.50;;
24547;SDS011;12713;51.624;4.924;2023-08-17T11:33:37;11.98;;;6.43;;
24547;SDS011;12713;51.624;4.924;2023-08-17T11:36:12;15.77;;;6.85;;
24547;SDS011;12713;51.624;4.924;2023-08-17T11:42:03;12.85;;;7.28;;
24547;SDS011;12713;51.624;4.924;2023-08-17T11:44:32;18.40;;;7.60;;
24547;SDS011;12713;51.624;4.924;2023-08-17T11:52:30;12.68;;;6.88;;
24547;SDS011;12713;51.624;4.924;2023-08-17T12:01:00;16.02;;;7.50;;
24547;SDS011;12713;51.624;4.924;2023-08-17T12:03:26;15.93;;;6.45;;
24547;SDS011;12713;51.624;4.924;2023-08-17T12:05:52;16.92;;;6.63;;
24547;SDS011;12713;51.624;4.924;2023-08-17T12:08:18;15.05;;;7.65;;
24547;SDS011;12713;51.624;4.924;2023-08-17T12:10:47;14.50;;;6.97;;
24547;SDS011;12713;51.624;4.924;2023-08-17T12:13:15;17.40;;;8.27;;
24547;SDS011;12713;51.624;4.924;2023-08-17T12:15:41;16.05;;;8.07;;
24547;SDS011;12713;51.624;4.924;2023-08-17T12:18:08;15.30;;;7.65;;
24547;SDS011;12713;51.624;4.924;2023-08-17T12:20:34;14.60;;;8.52;;
24547;SDS011;12713;51.624;4.924;2023-08-17T12:23:05;14.30;;;8.73;;
24547;SDS011;12713;51.624;4.924;2023-08-17T12:25:34;17.30;;;8.88;;
24547;SDS011;12713;51.624;4.924;2023-08-17T12:28:00;14.82;;;9.23;;
24547;SDS011;12713;51.624;4.924;2023-08-17T12:30:30;16.90;;;9.10;;
24547;SDS011;12713;51.624;4.924;2023-08-17T12:32:57;22.05;;;10.23;;
24547;SDS011;12713;51.624;4.924;2023-08-17T12:35:23;17.10;;;9.50;;
24547;SDS011;12713;51.624;4.924;2023-08-17T12:37:50;16.27;;;8.85;;
24547;SDS011;12713;51.624;4.924;2023-08-17T12:40:16;13.32;;;8.32;;
24547;SDS011;12713;51.624;4.924;2023-08-17T12:42:44;16.90;;;8.93;;
24547;SDS011;12713;51.624;4.924;2023-08-17T12:45:11;20.02;;;9.07;;
24547;SDS011;12713;51.624;4.924;2023-08-17T12:47:37;15.45;;;8.82;;
24547;SDS011;12713;51.624;4.924;2023-08-17T12:50:03;16.42;;;8.35;;
24547;SDS011;12713;51.624;4.924;2023-08-17T12:52:29;15.57;;;9.13;;
24547;SDS011;12713;51.624;4.924;2023-08-17T12:54:58;15.45;;;9.15;;
24547;SDS011;12713;51.624;4.924;2023-08-17T12:57:24;16.20;;;9.15;;
24547;SDS011;12713;51.624;4.924;2023-08-17T12:59:54;13.45;;;8.75;;
24547;SDS011;12713;51.624;4.924;2023-08-17T13:02:20;18.77;;;9.95;;
24547;SDS011;12713;51.624;4.924;2023-08-17T13:04:46;14.23;;;9.30;;
24547;SDS011;12713;51.624;4.924;2023-08-17T13:07:12;14.57;;;8.55;;
24547;SDS011;12713;51.624;4.924;2023-08-17T13:09:38;16.55;;;8.45;;
24547;SDS011;12713;51.624;4.924;2023-08-17T13:12:05;20.60;;;9.13;;
24547;SDS011;12713;51.624;4.924;2023-08-17T13:14:31;14.30;;;8.70;;
24547;SDS011;12713;51.624;4.924;2023-08-17T13:16:57;19.98;;;10.13;;
24547;SDS011;12713;51.624;4.924;2023-08-17T13:19:23;17.08;;;8.68;;
24547;SDS011;12713;51.624;4.924;2023-08-17T13:21:49;12.93;;;8.60;;
24547;SDS011;12713;51.624;4.924;2023-08-17T13:24:15;16.70;;;9.23;;
24547;SDS011;12713;51.624;4.924;2023-08-17T13:26:41;13.80;;;8.77;;
24547;SDS011;12713;51.624;4.924;2023-08-17T13:29:07;17.73;;;9.30;;
24547;SDS011;12713;51.624;4.924;2023-08-17T13:31:34;16.55;;;9.75;;
24547;SDS011;12713;51.624;4.924;2023-08-17T13:34:09;14.88;;;9.77;;
24547;SDS011;12713;51.624;4.924;2023-08-17T13:36:36;14.82;;;10.00;;
24547;SDS011;12713;51.624;4.924;2023-08-17T13:39:02;16.77;;;9.40;;
24547;SDS011;12713;51.624;4.924;2023-08-17T13:41:29;14.52;;;8.23;;
24547;SDS011;12713;51.624;4.924;2023-08-17T13:43:55;16.63;;;9.77;;
24547;SDS011;12713;51.624;4.924;2023-08-17T13:46:22;18.30;;;10.13;;
24547;SDS011;12713;51.624;4.924;2023-08-17T13:48:51;17.85;;;9.88;;
24547;SDS011;12713;51.624;4.924;2023-08-17T13:51:19;23.35;;;11.00;;
24547;SDS011;12713;51.624;4.924;2023-08-17T13:53:45;18.63;;;11.00;;
24547;SDS011;12713;51.624;4.924;2023-08-17T13:56:11;17.60;;;10.38;;
24547;SDS011;12713;51.624;4.924;2023-08-17T13:58:37;18.70;;;10.73;;
24547;SDS011;12713;51.624;4.924;2023-08-17T14:01:03;18.55;;;11.65;;
24547;SDS011;12713;51.624;4.924;2023-08-17T14:03:29;16.38;;;10.18;;
24547;SDS011;12713;51.624;4.924;2023-08-17T14:05:55;15.15;;;10.75;;
24547;SDS011;12713;51.624;4.924;2023-08-17T14:08:24;20.95;;;10.23;;
24547;SDS011;12713;51.624;4.924;2023-08-17T14:10:50;19.35;;;10.80;;
24547;SDS011;12713;51.624;4.924;2023-08-17T14:13:17;17.95;;;11.30;;
24547;SDS011;12713;51.624;4.924;2023-08-17T14:15:43;16.73;;;11.52;;
24547;SDS011;12713;51.624;4.924;2023-08-17T14:18:09;17.67;;;11.20;;
24547;SDS011;12713;51.624;4.924;2023-08-17T14:20:35;15.23;;;11.15;;
24547;SDS011;12713;51.624;4.924;2023-08-17T14:23:01;19.17;;;11.32;;
24547;SDS011;12713;51.624;4.924;2023-08-17T14:25:27;17.70;;;10.93;;
24547;SDS011;12713;51.624;4.924;2023-08-17T14:27:53;18.38;;;11.93;;
24547;SDS011;12713;51.624;4.924;2023-08-17T14:30:19;17.77;;;11.18;;
24547;SDS011;12713;51.624;4.924;2023-08-17T14:32:45;14.13;;;10.43;;
24547;SDS011;12713;51.624;4.924;2023-08-17T14:35:11;17.45;;;10.75;;
24547;SDS011;12713;51.624;4.924;2023-08-17T14:37:37;13.20;;;9.65;;
24547;SDS011;12713;51.624;4.924;2023-08-17T14:40:03;18.73;;;10.48;;
24547;SDS011;12713;51.624;4.924;2023-08-17T14:42:29;16.92;;;10.13;;
24547;SDS011;12713;51.624;4.924;2023-08-17T14:44:55;17.67;;;10.85;;
24547;SDS011;12713;51.624;4.924;2023-08-17T14:47:21;14.30;;;9.30;;
24547;SDS011;12713;51.624;4.924;2023-08-17T14:49:47;15.40;;;10.65;;
24547;SDS011;12713;51.624;4.924;2023-08-17T14:52:13;16.23;;;10.80;;
24547;SDS011;12713;51.624;4.924;2023-08-17T14:54:39;18.30;;;10.80;;
24547;SDS011;12713;51.624;4.924;2023-08-17T14:57:05;17.27;;;10.98;;
24547;SDS011;12713;51.624;4.924;2023-08-17T14:59:31;14.25;;;10.02;;
24547;SDS011;12713;51.624;4.924;2023-08-17T15:01:57;18.42;;;10.40;;
24547;SDS011;12713;51.624;4.924;2023-08-17T15:04:23;17.48;;;10.85;;
24547;SDS011;12713;51.624;4.924;2023-08-17T15:06:50;13.48;;;9.80;;
24547;SDS011;12713;51.624;4.924;2023-08-17T15:09:16;16.63;;;10.93;;
24547;SDS011;12713;51.624;4.924;2023-08-17T15:11:42;15.77;;;11.07;;
24547;SDS011;12713;51.624;4.924;2023-08-17T15:14:08;17.02;;;9.98;;